Frenchville, ME

3:19 PM EDT on October 01, 2014 (GMT -0400)
Clayton Lake | Change Station
CLOSE
Current Station
Airport
Location: Clayton Lake,
Elevation: 1030 ft
Nearby Weather Stations

Elev 1030 ft 46.62 °N, 69.53 °W | Updated 3 minutes ago

Clear
Clear
57 °F
Feels Like 57 °F
N
2
Wind Variable Wind from Variable
Gusts 3 mph

Today
High -- | Low -- °F
--% Chance of Precip.
Yesterday
High -- | Low -- °F
Precip. -- in
6:32 AM 6:13 PM
Waxing Crescent, 50% visible
Pressure 30.19 in
Visibility -9999.0 miles
Clouds
Dew Point 46 °F
Humidity 66%
Rainfall 0.00 in
Snow Depth Not available.
UV Not available.
Pollen 1.00 out of 12
Ozone Good
PM2.5 Good
Flu Activity Not available.
METAR K40B 011916Z AUTO VRB02KT 14/08 A3016 RMK AO1 SLP222 T01410078 57016

More Conditions Fewer Conditions

Pressure 30.19 in
Visibility -9999.0 miles
Clouds
Dew Point 46 °F
Humidity 66%
Rainfall 0.00 in
Snow Depth Not available.
UV Not available.
Pollen 1.00 out of 12
Ozone Good
PM2.5 Good
Flu Activity Not available.
METAR K40B 011916Z AUTO VRB02KT 14/08 A3016 RMK AO1 SLP222 T01410078 57016

More Conditions Fewer Conditions

10-Day Weather Forecast

Almanac

Astronomy

Oct. 01, 2014 Rise Set
Actual Time 6:32 AM EDT 6:13 PM EDT
Civil Twilight 6:01 AM EDT 6:43 PM EDT
Nautical Twilight 5:26 AM EDT 7:19 PM EDT
Astronomical Twilight 4:50 AM EDT 7:55 PM EDT
Moon 1:47 PM EDT 11:24 PM EDT
Length of Visible Light 12h 41m
Length of Day
11h 40m
Tomorrow will be 3m 21s shorter.
Waxing Crescent, 50% of the Moon is Illuminated
Today
Waxing Crescent
Oct 1
First Quarter
Oct 8
Full
Oct 15
Last Quarter
Oct 23
New

Today's Extremes

State Highs State Lows

Community

WunderPhotos

Upload Photos

1,758,010 photos uploaded!

WunderBlogs® & News

Nearby

Air Quality

  Air Quality AQ Index Pollutant
Yesterday Good
PM2.5
Yesterday Good
OZONE
Current Good
PM2.5
Current Good
OZONE
Wednesday Good
OZONE
Wednesday Good
PM2.5
Thursday Good
OZONE
Thursday Good
PM2.5
Friday Good
OZONE
Friday Good
PM2.5
Saturday Good
OZONE
Saturday Good
PM2.5

Snow Depth

Station Depth Elevation
No new snow has been reported.

Earthquake Activity

City Distance Mag. Time & Date
No recent earthquake activity has been reported nearby.
Minimum magnitude displayed is 2.5.

Coastal Water Temperatures

Place Temperature
No Stations Reporting

Nearby Weather Stations